createdAt,value
2019-03-10T00:01:42.996Z,16.70
2019-03-10T00:04:11.943Z,16.60
2019-03-10T00:06:40.560Z,16.70
2019-03-10T00:09:09.155Z,16.70
2019-03-10T00:11:37.825Z,16.70
2019-03-10T00:14:06.794Z,16.70
2019-03-10T00:16:35.496Z,16.70
2019-03-10T00:19:04.156Z,16.70
2019-03-10T00:21:32.762Z,16.70
2019-03-10T00:24:01.512Z,16.70
2019-03-10T00:26:30.112Z,16.70
2019-03-10T00:28:58.716Z,16.70
2019-03-10T00:31:27.331Z,16.70
2019-03-10T00:33:56.006Z,16.60
2019-03-10T00:36:24.611Z,16.60
2019-03-10T00:39:20.140Z,16.70
2019-03-10T00:42:36.476Z,16.60
2019-03-10T00:45:44.444Z,16.60
2019-03-10T00:48:42.328Z,16.60
2019-03-10T00:51:43.980Z,16.60
2019-03-10T00:54:12.908Z,16.60
2019-03-10T00:56:41.504Z,16.60
2019-03-10T00:59:10.128Z,16.60
2019-03-10T01:01:38.721Z,16.60
2019-03-10T01:04:07.316Z,16.60
2019-03-10T01:06:35.937Z,16.60
2019-03-10T01:09:04.953Z,16.60
2019-03-10T01:11:34.329Z,16.60
2019-03-10T01:14:02.996Z,16.60
2019-03-10T01:16:32.088Z,16.60
2019-03-10T01:19:00.984Z,16.60
2019-03-10T01:21:29.881Z,16.60
2019-03-10T01:23:58.485Z,16.60
2019-03-10T01:26:27.153Z,16.60
2019-03-10T01:28:55.835Z,16.60
2019-03-10T01:31:31.460Z,16.60
2019-03-10T01:34:50.613Z,16.60
2019-03-10T01:37:19.252Z,16.60
2019-03-10T01:39:47.860Z,16.60
2019-03-10T01:42:16.457Z,16.60
2019-03-10T01:44:45.082Z,16.60
2019-03-10T01:47:13.748Z,16.60
2019-03-10T01:49:42.787Z,16.60
2019-03-10T01:52:11.489Z,16.60
2019-03-10T01:54:40.363Z,16.50
2019-03-10T01:57:09.277Z,16.60
2019-03-10T01:59:38.480Z,16.60
2019-03-10T02:02:07.104Z,16.60
2019-03-10T02:04:35.776Z,16.60
2019-03-10T02:07:04.718Z,16.60
2019-03-10T02:09:33.332Z,16.60
2019-03-10T02:12:02.009Z,16.50
2019-03-10T02:14:30.991Z,16.60
2019-03-10T02:16:59.977Z,16.50
2019-03-10T02:19:28.664Z,16.50
2019-03-10T02:21:57.254Z,16.50
2019-03-10T02:24:25.876Z,16.50
2019-03-10T02:26:54.564Z,16.50
2019-03-10T02:29:23.223Z,16.60
2019-03-10T02:31:51.836Z,16.50
2019-03-10T02:34:20.800Z,16.50
2019-03-10T02:36:49.772Z,16.50
2019-03-10T02:39:18.442Z,16.50
2019-03-10T02:41:47.144Z,16.50
2019-03-10T02:44:15.813Z,16.50
2019-03-10T02:46:44.489Z,16.50
2019-03-10T02:49:13.511Z,16.50
2019-03-10T02:51:42.233Z,16.50
2019-03-10T02:54:10.908Z,16.50
2019-03-10T02:56:39.517Z,16.50
2019-03-10T02:59:08.189Z,16.50
2019-03-10T03:01:36.826Z,16.50
2019-03-10T03:04:06.040Z,16.50
2019-03-10T03:06:34.752Z,16.50
2019-03-10T03:09:04.653Z,16.50
2019-03-10T03:11:33.312Z,16.50
2019-03-10T03:14:01.917Z,16.50
2019-03-10T03:16:30.584Z,16.50
2019-03-10T03:18:59.233Z,16.50
2019-03-10T03:21:41.798Z,16.50
2019-03-10T03:23:58.202Z,16.50
2019-03-10T03:26:27.090Z,16.50
2019-03-10T03:28:55.749Z,16.50
2019-03-10T03:31:24.373Z,16.50
2019-03-10T03:33:53.065Z,16.50
2019-03-10T03:36:27.654Z,16.50
2019-03-10T03:39:09.518Z,16.50
2019-03-10T03:41:38.552Z,16.50
2019-03-10T03:44:07.225Z,16.50
2019-03-10T03:46:35.894Z,16.50
2019-03-10T03:49:04.593Z,16.40
2019-03-10T03:51:33.528Z,16.40
2019-03-10T03:54:02.132Z,16.50
2019-03-10T03:56:31.185Z,16.50
2019-03-10T03:58:59.857Z,16.50
2019-03-10T04:01:32.350Z,16.50
2019-03-10T04:04:01.372Z,16.50
2019-03-10T04:06:30.439Z,16.50
2019-03-10T04:08:59.139Z,16.50
2019-03-10T04:11:27.872Z,16.50
2019-03-10T04:13:56.832Z,16.40
2019-03-10T04:16:25.574Z,16.40
2019-03-10T04:18:54.257Z,16.40
2019-03-10T04:21:23.278Z,16.40
2019-03-10T04:23:51.972Z,16.40
2019-03-10T04:26:20.635Z,16.40
2019-03-10T04:28:49.233Z,16.40
2019-03-10T04:31:17.847Z,16.40
2019-03-10T04:33:46.521Z,16.40
2019-03-10T04:36:15.132Z,16.40
2019-03-10T04:38:43.725Z,16.40
2019-03-10T04:41:12.688Z,16.40
2019-03-10T04:43:41.650Z,16.40
2019-03-10T04:46:10.548Z,16.40
2019-03-10T04:48:39.160Z,16.40
2019-03-10T04:51:07.840Z,16.40
2019-03-10T04:53:36.806Z,16.40
2019-03-10T04:56:28.048Z,16.40
2019-03-10T04:58:56.812Z,16.40
2019-03-10T05:01:25.800Z,16.40
2019-03-10T05:03:54.403Z,16.40
2019-03-10T05:06:23.000Z,16.40
2019-03-10T05:08:51.609Z,16.40
2019-03-10T05:11:20.612Z,16.40
2019-03-10T05:13:49.225Z,16.40
2019-03-10T05:16:17.824Z,16.40
2019-03-10T05:18:46.451Z,16.40
2019-03-10T05:21:15.111Z,16.40
2019-03-10T05:23:44.771Z,16.40
2019-03-10T05:26:14.668Z,16.40
2019-03-10T05:28:45.009Z,16.40
2019-03-10T05:31:13.636Z,16.40
2019-03-10T05:33:42.256Z,16.40
2019-03-10T05:36:10.850Z,16.40
2019-03-10T05:38:39.891Z,16.40
2019-03-10T05:41:08.496Z,16.40
2019-03-10T05:43:37.094Z,16.40
2019-03-10T05:46:06.075Z,16.40
2019-03-10T05:48:34.671Z,16.40
2019-03-10T05:51:03.279Z,16.40
2019-03-10T05:53:31.958Z,16.40
2019-03-10T05:56:00.564Z,16.40
2019-03-10T05:58:29.160Z,16.40
2019-03-10T06:00:57.771Z,16.40
2019-03-10T06:03:26.644Z,16.40
2019-03-10T06:05:55.249Z,16.40
2019-03-10T06:08:23.856Z,16.30
2019-03-10T06:10:52.448Z,16.30
2019-03-10T06:13:21.059Z,16.40
2019-03-10T06:15:49.735Z,16.40
2019-03-10T06:18:18.340Z,16.40
2019-03-10T06:20:47.260Z,16.30
2019-03-10T06:23:15.944Z,16.40
2019-03-10T06:25:44.548Z,16.30
2019-03-10T06:28:13.161Z,16.40
2019-03-10T06:30:41.759Z,16.30
2019-03-10T06:33:10.393Z,16.40
2019-03-10T06:35:39.468Z,16.40
2019-03-10T06:38:08.059Z,16.30
2019-03-10T06:40:36.946Z,16.30
2019-03-10T06:43:05.615Z,16.40
2019-03-10T06:45:34.236Z,16.40
2019-03-10T06:48:02.910Z,16.40
2019-03-10T06:50:31.607Z,16.40
2019-03-10T06:53:00.479Z,16.40
2019-03-10T06:55:29.465Z,16.30
2019-03-10T06:57:58.417Z,16.30
2019-03-10T07:00:27.036Z,16.40
2019-03-10T07:02:55.935Z,16.40
2019-03-10T07:05:24.624Z,16.40
2019-03-10T07:07:53.236Z,16.40
2019-03-10T07:10:21.829Z,16.40
2019-03-10T07:12:50.438Z,16.40
2019-03-10T07:15:19.111Z,16.40
2019-03-10T07:17:47.801Z,16.40
2019-03-10T07:20:17.012Z,16.40
2019-03-10T07:22:45.916Z,16.40
2019-03-10T07:25:14.608Z,16.30
2019-03-10T07:27:49.428Z,16.40
2019-03-10T07:30:33.192Z,16.40
2019-03-10T07:33:17.959Z,16.40
2019-03-10T07:35:54.631Z,16.40
2019-03-10T07:38:29.735Z,16.40
2019-03-10T07:41:11.877Z,16.30
2019-03-10T07:43:59.569Z,16.40
2019-03-10T07:46:42.628Z,16.30
2019-03-10T07:49:19.801Z,16.40
2019-03-10T07:51:54.952Z,16.40
2019-03-10T07:54:29.351Z,16.40
2019-03-10T07:57:15.172Z,16.30
2019-03-10T07:59:58.889Z,16.30
2019-03-10T08:02:55.789Z,16.30
2019-03-10T08:05:35.704Z,16.30
2019-03-10T08:08:24.380Z,16.40
2019-03-10T08:11:07.602Z,16.30
2019-03-10T08:13:42.803Z,16.40
2019-03-10T08:16:33.356Z,16.30
2019-03-10T08:19:24.321Z,16.40
2019-03-10T08:22:11.029Z,16.40
2019-03-10T08:24:57.544Z,16.40
2019-03-10T08:27:40.764Z,16.40
2019-03-10T08:30:29.627Z,16.40
2019-03-10T08:33:29.809Z,16.40
2019-03-10T08:36:13.826Z,16.40
2019-03-10T08:39:01.773Z,16.40
2019-03-10T08:41:58.943Z,16.40
2019-03-10T08:45:02.101Z,16.40
2019-03-10T08:47:40.388Z,16.40
2019-03-10T08:50:15.839Z,16.30
2019-03-10T08:52:49.220Z,16.40
2019-03-10T08:55:34.508Z,16.40
2019-03-10T08:58:19.267Z,16.30
2019-03-10T09:01:04.647Z,16.40
2019-03-10T09:03:51.183Z,16.40
2019-03-10T09:06:44.985Z,16.40
2019-03-10T09:09:35.782Z,16.40
2019-03-10T09:12:18.558Z,16.40
2019-03-10T09:14:57.362Z,16.40
2019-03-10T09:17:44.192Z,16.40
2019-03-10T09:20:24.247Z,16.40
2019-03-10T09:23:06.324Z,16.40
2019-03-10T09:26:00.935Z,16.40
2019-03-10T09:28:49.021Z,16.40
2019-03-10T09:31:27.897Z,16.40
2019-03-10T09:34:12.852Z,16.40
2019-03-10T09:37:00.572Z,16.40
2019-03-10T09:39:51.410Z,16.40
2019-03-10T09:42:51.412Z,16.40
2019-03-10T09:45:35.476Z,16.40
2019-03-10T09:48:28.820Z,16.40
2019-03-10T09:51:10.325Z,16.40
2019-03-10T09:54:04.312Z,16.40
2019-03-10T09:56:49.687Z,16.30
2019-03-10T09:59:43.340Z,16.30
2019-03-10T10:02:21.663Z,16.30
2019-03-10T10:05:00.684Z,16.30
2019-03-10T10:07:42.911Z,16.40
2019-03-10T10:10:13.469Z,16.40
2019-03-10T10:13:15.765Z,16.30
2019-03-10T10:15:52.857Z,16.30
2019-03-10T10:18:53.097Z,16.40
2019-03-10T10:21:49.748Z,16.40
2019-03-10T10:24:27.717Z,16.40
2019-03-10T10:27:05.734Z,16.30
2019-03-10T10:29:52.213Z,16.40
2019-03-10T10:32:40.272Z,16.30
2019-03-10T10:35:38.451Z,16.40
2019-03-10T10:38:19.284Z,16.40
2019-03-10T10:41:02.971Z,16.40
2019-03-10T10:43:46.489Z,16.30
2019-03-10T10:46:36.276Z,16.30
2019-03-10T10:49:10.377Z,16.30
2019-03-10T10:51:56.073Z,16.30
2019-03-10T10:54:36.433Z,16.40
2019-03-10T10:57:30.414Z,16.40
2019-03-10T11:00:05.106Z,16.40
2019-03-10T11:02:56.303Z,16.30
2019-03-10T11:05:30.728Z,16.30
2019-03-10T11:08:06.109Z,16.30
2019-03-10T11:10:48.432Z,16.30
2019-03-10T11:13:23.548Z,16.30
2019-03-10T11:16:20.466Z,16.40
2019-03-10T11:19:18.067Z,16.40
2019-03-10T11:22:11.732Z,16.40
2019-03-10T11:24:58.203Z,16.30
2019-03-10T11:27:47.236Z,16.40
2019-03-10T11:30:37.786Z,16.40
2019-03-10T11:33:23.589Z,16.40
2019-03-10T11:36:17.459Z,16.30
2019-03-10T11:39:05.707Z,16.30
2019-03-10T11:41:43.831Z,16.30
2019-03-10T11:44:30.310Z,16.30
2019-03-10T11:47:03.432Z,16.40
2019-03-10T11:49:51.665Z,16.30
2019-03-10T11:52:32.128Z,16.30
2019-03-10T11:55:09.762Z,16.30
2019-03-10T11:57:43.468Z,16.30
2019-03-10T12:00:20.154Z,16.30
2019-03-10T12:03:04.956Z,16.30
2019-03-10T12:06:05.188Z,16.30
2019-03-10T12:08:56.188Z,16.30
2019-03-10T12:11:25.072Z,16.30
2019-03-10T12:13:53.673Z,16.30
2019-03-10T12:16:22.672Z,16.40
2019-03-10T12:18:51.561Z,16.30
2019-03-10T12:21:20.176Z,16.40
2019-03-10T12:23:48.779Z,16.30
2019-03-10T12:26:17.404Z,16.30
2019-03-10T12:28:46.086Z,16.30
2019-03-10T12:31:15.000Z,16.30
2019-03-10T12:33:43.602Z,16.40
2019-03-10T12:36:12.596Z,16.40
2019-03-10T12:38:41.277Z,16.30
2019-03-10T12:41:09.902Z,16.40
2019-03-10T12:43:38.945Z,16.30
2019-03-10T12:46:07.635Z,16.30
2019-03-10T12:48:36.340Z,16.30
2019-03-10T12:51:05.039Z,16.30
2019-03-10T12:53:33.715Z,16.30
2019-03-10T12:56:02.730Z,16.30
2019-03-10T12:58:31.329Z,16.30
2019-03-10T13:01:06.264Z,16.40
2019-03-10T13:03:30.593Z,16.30
2019-03-10T13:05:59.900Z,16.30
2019-03-10T13:08:28.872Z,16.30
2019-03-10T13:10:57.560Z,16.30
2019-03-10T13:13:26.168Z,16.30
2019-03-10T13:15:54.942Z,16.30
2019-03-10T13:18:23.535Z,16.30
2019-03-10T13:20:52.169Z,16.30
2019-03-10T13:23:21.092Z,16.30
2019-03-10T13:25:49.712Z,16.30
2019-03-10T13:28:18.669Z,16.30
2019-03-10T13:30:47.560Z,16.30
2019-03-10T13:33:16.236Z,16.30
2019-03-10T13:35:45.156Z,16.30
2019-03-10T13:38:13.775Z,16.30
2019-03-10T13:40:42.433Z,16.30
2019-03-10T13:43:11.402Z,16.30
2019-03-10T13:45:40.393Z,16.30
2019-03-10T13:48:09.280Z,16.30
2019-03-10T13:50:37.973Z,16.30
2019-03-10T13:53:06.891Z,16.30
2019-03-10T13:55:35.577Z,16.30
2019-03-10T13:58:04.176Z,16.20
2019-03-10T14:00:32.869Z,16.30
2019-03-10T14:03:01.464Z,16.30
2019-03-10T14:05:30.084Z,16.20
2019-03-10T14:07:58.981Z,16.30
2019-03-10T14:10:27.598Z,16.30
2019-03-10T14:12:56.200Z,16.30
2019-03-10T14:15:25.144Z,16.30
2019-03-10T14:17:53.747Z,16.30
2019-03-10T14:20:22.445Z,16.30
2019-03-10T14:22:51.039Z,16.30
2019-03-10T14:25:19.651Z,16.30
2019-03-10T14:27:48.252Z,16.20
2019-03-10T14:30:17.157Z,16.30
2019-03-10T14:32:45.789Z,16.30
2019-03-10T14:35:14.422Z,16.20
2019-03-10T14:37:43.040Z,16.30
2019-03-10T14:40:11.691Z,16.20
2019-03-10T14:42:40.377Z,16.20
2019-03-10T14:45:10.781Z,16.20
2019-03-10T14:47:39.460Z,16.20
2019-03-10T14:50:09.078Z,16.20
2019-03-10T14:52:38.101Z,16.20
2019-03-10T14:55:07.769Z,16.20
2019-03-10T14:57:36.450Z,16.20
2019-03-10T15:00:06.657Z,16.20
2019-03-10T15:02:35.262Z,16.20
2019-03-10T15:05:04.193Z,16.20
2019-03-10T15:07:32.811Z,16.20
2019-03-10T15:10:01.407Z,16.20
2019-03-10T15:12:30.024Z,16.20
2019-03-10T15:14:59.861Z,16.20
2019-03-10T15:17:28.475Z,16.20
2019-03-10T15:19:57.372Z,16.20
2019-03-10T15:22:26.068Z,16.20
2019-03-10T15:24:56.513Z,16.20
2019-03-10T15:27:25.008Z,16.20
2019-03-10T15:29:53.608Z,16.20
2019-03-10T15:32:22.610Z,16.20
2019-03-10T15:34:51.536Z,16.20
2019-03-10T15:37:20.156Z,16.20
2019-03-10T15:39:49.088Z,16.20
2019-03-10T15:42:17.769Z,16.20
2019-03-10T15:44:46.368Z,16.20
2019-03-10T15:47:14.968Z,16.20
2019-03-10T15:49:43.584Z,16.20
2019-03-10T15:52:12.515Z,16.20
2019-03-10T15:54:41.203Z,16.20
2019-03-10T15:57:10.199Z,16.20
2019-03-10T15:59:38.909Z,16.10
2019-03-10T16:02:07.529Z,16.20
2019-03-10T16:04:36.151Z,16.20
2019-03-10T16:07:05.142Z,16.10
2019-03-10T16:09:34.136Z,16.10
2019-03-10T16:12:02.818Z,16.10
2019-03-10T16:14:31.505Z,16.10
2019-03-10T16:17:00.169Z,16.10
2019-03-10T16:19:28.789Z,16.10
2019-03-10T16:21:57.384Z,16.10
2019-03-10T16:24:26.057Z,16.10
2019-03-10T16:26:55.045Z,16.10
2019-03-10T16:29:23.640Z,16.10
2019-03-10T16:31:52.249Z,16.10
2019-03-10T16:34:20.889Z,16.10
2019-03-10T16:36:49.572Z,16.10
2019-03-10T16:39:18.236Z,16.20
2019-03-10T16:41:46.934Z,16.10
2019-03-10T16:44:15.596Z,16.10
2019-03-10T16:46:44.204Z,16.10
2019-03-10T16:49:13.116Z,16.10
2019-03-10T16:51:41.767Z,16.10
2019-03-10T16:54:10.370Z,16.10
2019-03-10T16:56:38.962Z,16.10
2019-03-10T16:59:07.657Z,16.10
2019-03-10T17:01:36.253Z,16.10
2019-03-10T17:04:05.238Z,16.10
2019-03-10T17:06:33.913Z,16.10
2019-03-10T17:09:04.934Z,16.10
2019-03-10T17:11:33.957Z,16.10
2019-03-10T17:14:04.156Z,16.10
2019-03-10T17:16:33.376Z,16.10
2019-03-10T17:19:01.992Z,16.10
2019-03-10T17:21:30.664Z,16.10
2019-03-10T17:23:59.275Z,16.10
2019-03-10T17:26:27.900Z,16.10
2019-03-10T17:28:56.808Z,16.10
2019-03-10T17:31:25.714Z,16.10
2019-03-10T17:33:54.697Z,16.10
2019-03-10T17:36:23.303Z,16.10
2019-03-10T17:38:52.169Z,16.10
2019-03-10T17:41:21.084Z,16.10
2019-03-10T17:43:49.676Z,16.10
2019-03-10T17:46:18.627Z,16.10
2019-03-10T17:48:47.293Z,16.10
2019-03-10T17:51:15.972Z,16.00
2019-03-10T17:53:44.585Z,16.10
2019-03-10T17:56:13.196Z,16.10
2019-03-10T17:58:41.803Z,16.00
2019-03-10T18:01:10.860Z,16.00
2019-03-10T18:03:39.506Z,16.00
2019-03-10T18:06:08.568Z,16.10
2019-03-10T18:08:37.268Z,16.10
2019-03-10T18:11:05.869Z,16.10
2019-03-10T18:13:34.803Z,16.10
2019-03-10T18:16:03.391Z,16.00
2019-03-10T18:18:32.016Z,16.00
2019-03-10T18:21:00.956Z,16.00
2019-03-10T18:23:29.553Z,16.10
2019-03-10T18:25:58.436Z,16.00
2019-03-10T18:28:27.036Z,16.00
2019-03-10T18:30:55.972Z,16.00
2019-03-10T18:33:24.692Z,16.00
2019-03-10T18:35:53.371Z,16.10
2019-03-10T18:38:21.964Z,16.00
2019-03-10T18:40:50.591Z,16.00
2019-03-10T18:43:19.549Z,16.00
2019-03-10T18:45:48.169Z,16.00
2019-03-10T18:48:16.848Z,16.00
2019-03-10T18:50:45.612Z,16.00
2019-03-10T18:53:14.567Z,16.00
2019-03-10T18:55:43.283Z,16.00
2019-03-10T18:58:11.972Z,16.00
2019-03-10T19:00:40.568Z,16.00
2019-03-10T19:03:09.204Z,16.00
2019-03-10T19:05:37.985Z,16.00
2019-03-10T19:08:06.674Z,16.00
2019-03-10T19:10:35.691Z,16.00
2019-03-10T19:13:04.389Z,16.00
2019-03-10T19:15:33.116Z,16.00
2019-03-10T19:18:01.789Z,16.00
2019-03-10T19:20:30.764Z,16.00
2019-03-10T19:22:59.764Z,16.00
2019-03-10T19:25:28.753Z,16.00
2019-03-10T19:27:57.428Z,16.00
2019-03-10T19:30:26.045Z,16.00
2019-03-10T19:32:54.640Z,16.00
2019-03-10T19:35:23.264Z,16.00
2019-03-10T19:37:51.932Z,15.90
2019-03-10T19:40:20.576Z,15.90
2019-03-10T19:42:49.168Z,16.00
2019-03-10T19:45:17.759Z,16.00
2019-03-10T19:47:46.632Z,15.90
2019-03-10T19:50:15.924Z,15.90
2019-03-10T19:52:44.604Z,15.90
2019-03-10T19:55:13.319Z,16.00
2019-03-10T19:57:42.227Z,16.00
2019-03-10T20:00:13.729Z,16.00
2019-03-10T20:02:42.723Z,15.90
2019-03-10T20:05:11.648Z,15.90
2019-03-10T20:07:40.272Z,15.90
2019-03-10T20:10:10.256Z,15.90
2019-03-10T20:12:38.952Z,15.90
2019-03-10T20:15:09.708Z,15.90
2019-03-10T20:17:38.358Z,15.90
2019-03-10T20:20:09.040Z,15.90
2019-03-10T20:22:37.639Z,15.90
2019-03-10T20:25:06.620Z,15.90
2019-03-10T20:27:35.216Z,15.90
2019-03-10T20:30:04.746Z,15.90
2019-03-10T20:32:33.407Z,15.90
2019-03-10T20:35:02.326Z,15.90
2019-03-10T20:37:31.249Z,15.90
2019-03-10T20:39:59.912Z,15.90
2019-03-10T20:42:28.620Z,15.90
2019-03-10T20:44:57.213Z,15.90
2019-03-10T20:47:25.820Z,15.90
2019-03-10T20:49:54.739Z,15.90
2019-03-10T20:52:23.437Z,15.90
2019-03-10T20:54:52.314Z,15.90
2019-03-10T20:57:20.931Z,15.90
2019-03-10T20:59:59.958Z,15.90
2019-03-10T21:02:20.114Z,15.90
2019-03-10T21:04:48.995Z,15.90
2019-03-10T21:07:17.594Z,15.80
2019-03-10T21:09:46.287Z,15.90
2019-03-10T21:12:14.964Z,15.80
2019-03-10T21:14:43.581Z,15.80
2019-03-10T21:17:12.180Z,15.80
2019-03-10T21:19:41.428Z,15.80
2019-03-10T21:22:10.320Z,15.80
2019-03-10T21:24:38.997Z,15.90
2019-03-10T21:27:07.619Z,15.80
2019-03-10T21:29:36.571Z,15.80
2019-03-10T21:32:05.180Z,15.90
2019-03-10T21:34:33.771Z,15.80
2019-03-10T21:37:02.365Z,15.80
2019-03-10T21:39:34.514Z,15.80
2019-03-10T21:42:01.296Z,15.80
2019-03-10T21:44:29.919Z,15.80
2019-03-10T21:46:58.581Z,15.80
2019-03-10T21:49:27.183Z,15.80
2019-03-10T21:51:55.792Z,15.80
2019-03-10T21:54:24.797Z,15.80
2019-03-10T21:56:53.460Z,15.80
2019-03-10T21:59:22.056Z,15.80
2019-03-10T22:01:50.735Z,15.90
2019-03-10T22:04:19.330Z,15.80
2019-03-10T22:06:48.031Z,15.90
2019-03-10T22:09:16.708Z,15.90
2019-03-10T22:11:45.993Z,15.80
2019-03-10T22:14:14.600Z,15.80
2019-03-10T22:16:43.200Z,15.80
2019-03-10T22:19:21.917Z,15.80
2019-03-10T22:21:42.799Z,15.80
2019-03-10T22:24:11.607Z,15.80
2019-03-10T22:26:40.276Z,15.80
2019-03-10T22:29:09.560Z,15.80
2019-03-10T22:31:38.173Z,15.80
2019-03-10T22:34:06.999Z,15.80
2019-03-10T22:36:35.836Z,15.80
2019-03-10T22:39:06.410Z,15.80
2019-03-10T22:41:35.100Z,15.80
2019-03-10T22:44:04.000Z,15.80
2019-03-10T22:46:32.867Z,15.80
2019-03-10T22:49:01.541Z,15.80
2019-03-10T22:51:30.500Z,15.70
2019-03-10T22:53:59.092Z,15.70
2019-03-10T22:56:27.912Z,15.80
2019-03-10T22:58:56.544Z,15.80
2019-03-10T23:01:25.451Z,15.80
2019-03-10T23:03:54.131Z,15.80
2019-03-10T23:06:22.733Z,15.80
2019-03-10T23:08:51.755Z,15.80
2019-03-10T23:11:20.391Z,15.80
2019-03-10T23:13:48.996Z,15.70
2019-03-10T23:16:17.692Z,15.80
2019-03-10T23:18:46.300Z,15.80
2019-03-10T23:21:14.912Z,15.80
2019-03-10T23:23:43.537Z,15.80
2019-03-10T23:26:12.127Z,15.80
2019-03-10T23:28:41.424Z,15.80
2019-03-10T23:31:10.036Z,15.70
2019-03-10T23:33:38.699Z,15.70
2019-03-10T23:36:07.308Z,15.80
2019-03-10T23:38:36.259Z,15.70
2019-03-10T23:41:04.868Z,15.70
2019-03-10T23:43:33.459Z,15.70
2019-03-10T23:46:02.064Z,15.70
2019-03-10T23:48:30.652Z,15.80
2019-03-10T23:50:59.264Z,15.80
2019-03-10T23:53:27.884Z,15.70
2019-03-10T23:55:56.506Z,15.70
2019-03-10T23:58:25.184Z,15.70
